Rovaniemi Airport


Codes: EFRO/RVN
Name: Rovaniemi Airport
City: Rovaniemi
Country: Finland
Elevation: 642 ft.
Wikipedia:

Photos at Rovaniemi Airport


   Photos courtesy of SpottingLog. You can add your own sightings and photos by signing up for a free trial today.



No photos found.

Weather at Rovaniemi Airport


Time (UTC)DescriptionTempratureWindCloud coverageVisibilityPressureHumidity
16-Jun-2024 12:00Scattered Clouds17°C11 mph, SW37%10000m1014hPa53%
16-Jun-2024 15:00Broken Clouds17°C9 mph, SW73%10000m1015hPa48%
16-Jun-2024 18:00Overcast Clouds16°C4 mph, SW95%10000m1016hPa60%
16-Jun-2024 21:00Overcast Clouds12°C2 mph, S99%10000m1017hPa73%
17-Jun-2024 00:00Overcast Clouds12°C4 mph, S100%10000m1018hPa84%
17-Jun-2024 03:00Light Rain12°C7 mph, SE100%10000m1017hPa96%
17-Jun-2024 06:00Light Rain12°C4 mph, SE100%10000m1018hPa97%
17-Jun-2024 09:00Light Rain13°C7 mph, S100%10000m1018hPa96%
17-Jun-2024 12:00Light Rain16°C7 mph, S100%10000m1017hPa81%
17-Jun-2024 15:00Light Rain17°C7 mph, S100%10000m1016hPa82%
17-Jun-2024 18:00Light Rain14°C4 mph, E99%10000m1015hPa91%
17-Jun-2024 21:00Overcast Clouds13°C4 mph, NE100%10000m1015hPa91%
18-Jun-2024 00:00Overcast Clouds11°C4 mph, NE100%10000m1013hPa95%
18-Jun-2024 03:00Overcast Clouds13°C2 mph, E100%10000m1011hPa89%
18-Jun-2024 06:00Light Rain13°C2 mph, E100%10000m1010hPa97%
18-Jun-2024 09:00Light Rain13°C4 mph, E100%10000m1009hPa97%
18-Jun-2024 12:00Light Rain14°C2 mph, SE100%10000m1007hPa97%
18-Jun-2024 15:00Light Rain14°C4 mph, SE100%10000m1005hPa97%
18-Jun-2024 18:00Moderate Rain13°C4 mph, SE100%8598m1004hPa99%
18-Jun-2024 21:00Moderate Rain13°C7 mph, SE100%8990m1003hPa98%
19-Jun-2024 00:00Moderate Rain12°C4 mph, SE100%4198m1001hPa99%
19-Jun-2024 03:00Moderate Rain12°C2 mph, SE100%530m998hPa99%
19-Jun-2024 06:00Light Rain12°C4 mph, SW100%10000m997hPa96%
19-Jun-2024 09:00Light Rain12°C7 mph, SW100%10000m996hPa94%
19-Jun-2024 12:00Light Rain12°C7 mph, SW100%10000m995hPa97%
19-Jun-2024 15:00Moderate Rain12°C11 mph, SW100%3986m994hPa97%
19-Jun-2024 18:00Moderate Rain11°C4 mph, NW100%10000m994hPa95%
19-Jun-2024 21:00Overcast Clouds11°C7 mph, W100%10000m994hPa96%
20-Jun-2024 00:00Overcast Clouds10°C7 mph, NW100%10000m995hPa94%
20-Jun-2024 03:00Overcast Clouds9°C4 mph, N86%10000m995hPa89%
20-Jun-2024 06:00Overcast Clouds10°C0 mph, SW93%10000m995hPa89%
20-Jun-2024 09:00Overcast Clouds12°C4 mph, S100%10000m996hPa76%
20-Jun-2024 12:00Light Rain14°C9 mph, SW99%10000m995hPa71%
20-Jun-2024 15:00Overcast Clouds15°C11 mph, SW100%10000m995hPa46%
20-Jun-2024 18:00Broken Clouds12°C9 mph, SW65%10000m996hPa66%
20-Jun-2024 21:00Overcast Clouds10°C9 mph, SW100%10000m996hPa80%
21-Jun-2024 00:00Broken Clouds7°C7 mph, SW66%10000m996hPa82%
21-Jun-2024 03:00Few Clouds8°C9 mph, SW13%10000m997hPa74%
21-Jun-2024 06:00Broken Clouds10°C11 mph, SW57%10000m997hPa62%
21-Jun-2024 09:00Light Rain9°C9 mph, W100%10000m998hPa73%